أنطاليا, Turkey

04:09 AM EET on لبراêر 11, 2016 (GMT +0200)
Antalya | | Change Station
CLOSE
Current Station
Airport
Location: Antalya,
Elevation: 174 ft
Nearby Weather Stations

Elev 174 ft 36.90 °N, 30.80 °E | Updated 19 minutes ago

Mostly Cloudy
غائم كلياً
52 °F
Feels Like 52 °F
N
2
ريح متغير ريح from متغير

هذا اليوم
High -- | Low -- °F
--% Chance of Precip.
Yesterday
High -- | Low -- °F
Precip. -- في
الضغط 30.06 في
وضوح الرؤية 6.2 أميال
سحابات غيوم متفرقة 3000 ft
غائم كلياً 10000 ft
نقطة الندى 45 °F
الرطوبة 76%
Rainfall 0.00 في
عمق الثلج Not available.
6:50 AM 5:32 PM
الهلال الأول, 8% visible
METAR LTAI 110150Z VRB02KT 9999 SCT030 BKN100 11/07 Q1018 NOSIG
الضغط 30.06 في
وضوح الرؤية 6.2 أميال
سحابات غيوم متفرقة 3000 ft
غائم كلياً 10000 ft
نقطة الندى 45 °F
الرطوبة 76%
Rainfall 0.00 في
عمق الثلج Not available.
6:50 AM 5:32 PM
الهلال الأول, 8% visible
METAR LTAI 110150Z VRB02KT 9999 SCT030 BKN100 11/07 Q1018 NOSIG

10-Day Weather Forecast

Almanac

علم الفلك

Feb. 11, 2016 Rise Set
Actual Time
Civil Twilight
Nautical Twilight
Astronomical Twilight
قمر
Length Of Visible Light
طول الیوم
Tomorrow will be .
, % of the Moon is Illuminated

Today's Extremes

Country Highs Country Lows

Community

WunderPhotos

Upload Photos

1,891,974 photos uploaded!

WunderBlog® & News

Nearby

جودة الهواء

  جودة الهواء AQ Index Pollutant
Not available.

عمق الثلج

Station Depth Elevation

Earthquake Activity

City Distance Mag. Time & Date
Minimum magnitude displayed is 2.5.

Coastal Water Temperatures

مكان درجات الحرارة

Stations

Nearby Weather Stations

Station Location الحرارة رياح باردة نقطة الندى الرطوبة ريح Precip. Elev تحديث Type